PWSweather.com
Personal Weather Stations
Station Observations
KCTHAMDEN
Dunbar Hill, Hamden, CT 06514

Dunbar HillHamden, CT 06514

Lat: 41.365437, Lon: -72.956532

Elevation: 200

Station Type: Davis Vantage Pro2+

www.hamdenweather.com

High Low Average
Temperature 44.2°F6.8°C 27.4°F-2.6°C 36.6°F2.6°C
Dew Point 38.5°F3.6°C 17.3°F-8.2°C 23.4°F-4.8°C
Winds 9.1 mph 14.6 kmh Calm Calm 2.0 mph SW3.2 kmh SW
Wind Gusts 15.0 mph24.1 kmh -- 4.0 mph6.4 kmh
Humidity 80% 44% 59%
Pressure 30.04 in1017.3 mb 29.70 in1005.8 mb -
Precipitation 0.00 in0.0 mm - -
Hour Temp Dew Point Humidity Winds Wind Gusts Pressure Precip Precip Rate Daily Precip Total
12:00 AM 44.2°F6.8°C 38.5°F3.6°C 80% 1.1 mph NE1.8 kmh NE 4.0 mph6.4 kmh 29.70 in1005.8 mb - 0.00 in0.0 mm 0.00 in0.0 mm
12:15 AM 43.2°F6.2°C 36.8°F2.7°C 78% 2.2 mph NW3.5 kmh NW 4.0 mph6.4 kmh 29.70 in1005.8 mb - 0.00 in0.0 mm 0.00 in0.0 mm
12:30 AM 42.2°F5.7°C 35.2°F1.8°C 76% 3.0 mph ESE4.8 kmh ESE 7.0 mph11.3 kmh 29.71 in1006.1 mb - 0.00 in0.0 mm 0.00 in0.0 mm
12:45 AM 41.6°F5.3°C 34.3°F1.3°C 75% 0.4 mph WSW0.6 kmh WSW -- 29.71 in1006.1 mb - 0.00 in0.0 mm 0.00 in0.0 mm
01:00 AM 41.1°F5.1°C 33.4°F0.8°C 74% 1.0 mph WSW1.6 kmh WSW 1.0 mph1.6 kmh 29.71 in1006.1 mb - 0.00 in0.0 mm 0.00 in0.0 mm
01:15 AM 40.8°F4.9°C 33.2°F0.7°C 74% 4.1 mph NW6.6 kmh NW 6.0 mph9.7 kmh 29.72 in1006.4 mb - 0.00 in0.0 mm 0.00 in0.0 mm
01:30 AM 40.4°F4.7°C 32.8°F0.4°C 74% 1.0 mph NNW1.6 kmh NNW 2.0 mph3.2 kmh 29.72 in1006.4 mb - 0.00 in0.0 mm 0.00 in0.0 mm
01:45 AM 40.0°F4.4°C 32.4°F0.2°C 74% 1.1 mph NW1.8 kmh NW 2.0 mph3.2 kmh 29.73 in1006.8 mb - 0.00 in0.0 mm 0.00 in0.0 mm
02:00 AM 39.8°F4.3°C 32.1°F0.1°C 74% 0.3 mph NW0.5 kmh NW 2.0 mph3.2 kmh 29.73 in1006.8 mb - 0.00 in0.0 mm 0.00 in0.0 mm
02:15 AM 39.3°F4.1°C 31.7°F-0.2°C 74% 2.4 mph NW3.9 kmh NW 4.0 mph6.4 kmh 29.73 in1006.8 mb - 0.00 in0.0 mm 0.00 in0.0 mm
02:30 AM 38.8°F3.8°C 31.2°F-0.4°C 74% 0.6 mph N1.0 kmh N 4.0 mph6.4 kmh 29.73 in1006.8 mb - 0.00 in0.0 mm 0.00 in0.0 mm
02:45 AM 38.5°F3.6°C 30.6°F-0.8°C 73% 0.8 mph W1.3 kmh W 3.0 mph4.8 kmh 29.73 in1006.8 mb - 0.00 in0.0 mm 0.00 in0.0 mm
03:00 AM 38.3°F3.5°C 30.0°F-1.1°C 72% 0.1 mph WSW0.2 kmh WSW -- 29.73 in1006.8 mb - 0.00 in0.0 mm 0.00 in0.0 mm
03:15 AM 37.7°F3.2°C 29.5°F-1.4°C 72% Calm Calm 1.0 mph1.6 kmh 29.73 in1006.8 mb - 0.00 in0.0 mm 0.00 in0.0 mm
03:30 AM 37.0°F2.8°C 28.8°F-1.8°C 72% 0.7 mph NW1.1 kmh NW 2.0 mph3.2 kmh 29.74 in1007.1 mb - 0.00 in0.0 mm 0.00 in0.0 mm
03:45 AM 36.4°F2.4°C 29.2°F-1.6°C 75% 0.3 mph NE0.5 kmh NE -- 29.75 in1007.5 mb - 0.00 in0.0 mm 0.00 in0.0 mm
04:00 AM 35.5°F1.9°C 28.4°F-2.0°C 75% 1.0 mph WSW1.6 kmh WSW 1.0 mph1.6 kmh 29.76 in1007.8 mb - 0.00 in0.0 mm 0.00 in0.0 mm
04:15 AM 35.0°F1.7°C 27.6°F-2.4°C 74% 0.4 mph N0.6 kmh N 2.0 mph3.2 kmh 29.77 in1008.1 mb - 0.00 in0.0 mm 0.00 in0.0 mm
04:30 AM 34.7°F1.5°C 26.2°F-3.2°C 71% 3.3 mph NW5.3 kmh NW 6.0 mph9.7 kmh 29.77 in1008.1 mb - 0.00 in0.0 mm 0.00 in0.0 mm
04:45 AM 34.4°F1.3°C 25.3°F-3.7°C 69% 2.6 mph WNW4.2 kmh WNW 5.0 mph8.0 kmh 29.78 in1008.5 mb - 0.00 in0.0 mm 0.00 in0.0 mm
05:00 AM 34.3°F1.3°C 25.2°F-3.8°C 69% 1.5 mph N2.4 kmh N 2.0 mph3.2 kmh 29.79 in1008.8 mb - 0.00 in0.0 mm 0.00 in0.0 mm
05:15 AM 34.1°F1.2°C 25.0°F-3.9°C 69% 1.2 mph ENE1.9 kmh ENE 3.0 mph4.8 kmh 29.79 in1008.8 mb - 0.00 in0.0 mm 0.00 in0.0 mm
05:30 AM 33.9°F1.1°C 24.4°F-4.2°C 68% 1.9 mph ENE3.1 kmh ENE 8.0 mph12.9 kmh 29.79 in1008.8 mb - 0.00 in0.0 mm 0.00 in0.0 mm
05:45 AM 33.8°F1.0°C 24.0°F-4.4°C 67% 1.4 mph ENE2.3 kmh ENE 2.0 mph3.2 kmh 29.79 in1008.8 mb - 0.00 in0.0 mm 0.00 in0.0 mm
06:00 AM 33.6°F0.9°C 23.4°F-4.8°C 66% 1.8 mph NNW2.9 kmh NNW 2.0 mph3.2 kmh 29.79 in1008.8 mb - 0.00 in0.0 mm 0.00 in0.0 mm
06:15 AM 33.3°F0.7°C 22.8°F-5.1°C 65% 2.3 mph NE3.7 kmh NE 8.0 mph12.9 kmh 29.79 in1008.8 mb - 0.00 in0.0 mm 0.00 in0.0 mm
06:30 AM 33.0°F0.6°C 22.5°F-5.3°C 65% 0.2 mph NNE0.3 kmh NNE -- 29.80 in1009.1 mb - 0.00 in0.0 mm 0.00 in0.0 mm
06:45 AM 32.5°F0.3°C 22.4°F-5.3°C 66% 1.2 mph N1.9 kmh N 4.0 mph6.4 kmh 29.81 in1009.5 mb - 0.00 in0.0 mm 0.00 in0.0 mm
07:00 AM 31.9°F-0.1°C 22.2°F-5.4°C 67% Calm Calm -- 29.81 in1009.5 mb - 0.00 in0.0 mm 0.00 in0.0 mm
07:15 AM 31.3°F-0.4°C 21.6°F-5.8°C 67% Calm Calm -- 29.82 in1009.8 mb - 0.00 in0.0 mm 0.00 in0.0 mm
07:30 AM 31.1°F-0.5°C 22.5°F-5.3°C 70% Calm Calm 1.0 mph1.6 kmh 29.83 in1010.2 mb - 0.00 in0.0 mm 0.00 in0.0 mm
07:45 AM 30.7°F-0.7°C 22.1°F-5.5°C 70% Calm Calm -- 29.84 in1010.5 mb - 0.00 in0.0 mm 0.00 in0.0 mm
08:00 AM 31.8°F-0.1°C 22.1°F-5.5°C 67% 0.5 mph WSW0.8 kmh WSW 2.0 mph3.2 kmh 29.84 in1010.5 mb - 0.00 in0.0 mm 0.00 in0.0 mm
08:15 AM 33.9°F1.1°C 22.2°F-5.4°C 62% Calm Calm -- 29.85 in1010.8 mb - 0.00 in0.0 mm 0.00 in0.0 mm
08:30 AM 35.2°F1.8°C 22.3°F-5.4°C 59% 0.8 mph WNW1.3 kmh WNW 3.0 mph4.8 kmh 29.86 in1011.2 mb - 0.00 in0.0 mm 0.00 in0.0 mm
08:45 AM 36.2°F2.3°C 22.8°F-5.1°C 58% 5.0 mph WSW8.0 kmh WSW 8.0 mph12.9 kmh 29.86 in1011.2 mb - 0.00 in0.0 mm 0.00 in0.0 mm
09:00 AM 36.7°F2.6°C 22.9°F-5.1°C 57% 2.4 mph SW3.9 kmh SW 3.0 mph4.8 kmh 29.85 in1010.8 mb - 0.00 in0.0 mm 0.00 in0.0 mm
09:15 AM 37.1°F2.8°C 23.3°F-4.8°C 57% Calm Calm -- 29.85 in1010.8 mb - 0.00 in0.0 mm 0.00 in0.0 mm
09:30 AM 37.7°F3.2°C 23.0°F-5.0°C 55% Calm Calm 4.0 mph6.4 kmh 29.86 in1011.2 mb - 0.00 in0.0 mm 0.00 in0.0 mm
09:45 AM 38.0°F3.3°C 22.4°F-5.3°C 53% 2.7 mph E4.3 kmh E 7.0 mph11.3 kmh 29.86 in1011.2 mb - 0.00 in0.0 mm 0.00 in0.0 mm
10:00 AM 38.2°F3.4°C 23.0°F-5.0°C 54% 1.4 mph NW2.3 kmh NW 7.0 mph11.3 kmh 29.85 in1010.8 mb - 0.00 in0.0 mm 0.00 in0.0 mm
10:15 AM 38.8°F3.8°C 23.1°F-4.9°C 53% 4.2 mph W6.8 kmh W 8.0 mph12.9 kmh 29.85 in1010.8 mb - 0.00 in0.0 mm 0.00 in0.0 mm
10:30 AM 38.9°F3.8°C 23.2°F-4.9°C 53% 3.1 mph WSW5.0 kmh WSW 11.0 mph17.7 kmh 29.85 in1010.8 mb - 0.00 in0.0 mm 0.00 in0.0 mm
10:45 AM 39.4°F4.1°C 22.7°F-5.2°C 51% 2.8 mph WNW4.5 kmh WNW 6.0 mph9.7 kmh 29.85 in1010.8 mb - 0.00 in0.0 mm 0.00 in0.0 mm
11:00 AM 39.9°F4.4°C 22.7°F-5.2°C 50% 0.3 mph NE0.5 kmh NE 1.0 mph1.6 kmh 29.85 in1010.8 mb - 0.00 in0.0 mm 0.00 in0.0 mm
11:15 AM 39.7°F4.3°C 22.1°F-5.5°C 49% 1.2 mph E1.9 kmh E 2.0 mph3.2 kmh 29.85 in1010.8 mb - 0.00 in0.0 mm 0.00 in0.0 mm
11:30 AM 40.4°F4.7°C 23.2°F-4.9°C 50% 2.8 mph W4.5 kmh W 4.0 mph6.4 kmh 29.85 in1010.8 mb - 0.00 in0.0 mm 0.00 in0.0 mm
11:45 AM 40.6°F4.8°C 23.4°F-4.8°C 50% 2.2 mph W3.5 kmh W 8.0 mph12.9 kmh 29.85 in1010.8 mb - 0.00 in0.0 mm 0.00 in0.0 mm
12:00 PM 41.0°F5.0°C 23.8°F-4.6°C 50% Calm Calm 6.0 mph9.7 kmh 29.84 in1010.5 mb - 0.00 in0.0 mm 0.00 in0.0 mm
12:15 PM 41.6°F5.3°C 23.8°F-4.6°C 49% Calm Calm -- 29.84 in1010.5 mb - 0.00 in0.0 mm 0.00 in0.0 mm
12:30 PM 41.5°F5.3°C 22.2°F-5.4°C 46% 9.1 mph SW14.6 kmh SW 15.0 mph24.1 kmh 29.83 in1010.2 mb - 0.00 in0.0 mm 0.00 in0.0 mm
12:45 PM 41.6°F5.3°C 22.8°F-5.1°C 47% Calm Calm 3.0 mph4.8 kmh 29.83 in1010.2 mb - 0.00 in0.0 mm 0.00 in0.0 mm
01:00 PM 41.8°F5.4°C 23.0°F-5.0°C 47% 2.7 mph WSW4.3 kmh WSW 3.0 mph4.8 kmh 29.83 in1010.2 mb - 0.00 in0.0 mm 0.00 in0.0 mm
01:15 PM 42.0°F5.6°C 22.2°F-5.4°C 45% 3.2 mph NNE5.1 kmh NNE 8.0 mph12.9 kmh 29.83 in1010.2 mb - 0.00 in0.0 mm 0.00 in0.0 mm
01:30 PM 42.7°F5.9°C 23.3°F-4.8°C 46% 1.3 mph S2.1 kmh S 6.0 mph9.7 kmh 29.83 in1010.2 mb - 0.00 in0.0 mm 0.00 in0.0 mm
01:45 PM 42.8°F6.0°C 22.4°F-5.3°C 44% 5.8 mph E9.3 kmh E 8.0 mph12.9 kmh 29.83 in1010.2 mb - 0.00 in0.0 mm 0.00 in0.0 mm
02:00 PM 42.3°F5.7°C 21.9°F-5.6°C 44% 0.3 mph N0.5 kmh N 3.0 mph4.8 kmh 29.83 in1010.2 mb - 0.00 in0.0 mm 0.00 in0.0 mm
02:15 PM 42.2°F5.7°C 22.4°F-5.3°C 45% 2.5 mph NW4.0 kmh NW 7.0 mph11.3 kmh 29.83 in1010.2 mb - 0.00 in0.0 mm 0.00 in0.0 mm
02:30 PM 42.5°F5.8°C 22.1°F-5.5°C 44% 0.9 mph ENE1.4 kmh ENE 2.0 mph3.2 kmh 29.84 in1010.5 mb - 0.00 in0.0 mm 0.00 in0.0 mm
02:45 PM 42.7°F5.9°C 22.8°F-5.1°C 45% 0.8 mph NNE1.3 kmh NNE 6.0 mph9.7 kmh 29.84 in1010.5 mb - 0.00 in0.0 mm 0.00 in0.0 mm
03:00 PM 41.8°F5.4°C 22.0°F-5.6°C 45% Calm Calm -- 29.84 in1010.5 mb - 0.00 in0.0 mm 0.00 in0.0 mm
03:15 PM 41.4°F5.2°C 22.1°F-5.5°C 46% 4.1 mph NNW6.6 kmh NNW 12.0 mph19.3 kmh 29.84 in1010.5 mb - 0.00 in0.0 mm 0.00 in0.0 mm
03:30 PM 41.2°F5.1°C 22.5°F-5.3°C 47% 2.9 mph NW4.7 kmh NW 9.0 mph14.5 kmh 29.84 in1010.5 mb - 0.00 in0.0 mm 0.00 in0.0 mm
03:45 PM 40.8°F4.9°C 21.6°F-5.8°C 46% 3.7 mph WSW6.0 kmh WSW 3.0 mph4.8 kmh 29.84 in1010.5 mb - 0.00 in0.0 mm 0.00 in0.0 mm
04:00 PM 40.5°F4.7°C 21.8°F-5.7°C 47% 1.0 mph NW1.6 kmh NW 9.0 mph14.5 kmh 29.85 in1010.8 mb - 0.00 in0.0 mm 0.00 in0.0 mm
04:15 PM 39.9°F4.4°C 21.8°F-5.7°C 48% 1.7 mph WSW2.7 kmh WSW 10.0 mph16.1 kmh 29.85 in1010.8 mb - 0.00 in0.0 mm 0.00 in0.0 mm
04:30 PM 39.7°F4.3°C 22.1°F-5.5°C 49% 0.3 mph WSW0.5 kmh WSW 3.0 mph4.8 kmh 29.86 in1011.2 mb - 0.00 in0.0 mm 0.00 in0.0 mm
04:45 PM 39.2°F4.0°C 21.6°F-5.8°C 49% 2.7 mph SW4.3 kmh SW 4.0 mph6.4 kmh 29.86 in1011.2 mb - 0.00 in0.0 mm 0.00 in0.0 mm
05:00 PM 38.9°F3.8°C 20.9°F-6.2°C 48% 0.8 mph SSW1.3 kmh SSW 1.0 mph1.6 kmh 29.87 in1011.5 mb - 0.00 in0.0 mm 0.00 in0.0 mm
05:15 PM 38.6°F3.7°C 21.1°F-6.1°C 49% 1.6 mph NNW2.6 kmh NNW 10.0 mph16.1 kmh 29.88 in1011.9 mb - 0.00 in0.0 mm 0.00 in0.0 mm
05:30 PM 38.1°F3.4°C 21.5°F-5.8°C 51% 2.6 mph WSW4.2 kmh WSW 7.0 mph11.3 kmh 29.89 in1012.2 mb - 0.00 in0.0 mm 0.00 in0.0 mm
05:45 PM 37.5°F3.1°C 21.5°F-5.8°C 52% 1.9 mph NNE3.1 kmh NNE 7.0 mph11.3 kmh 29.90 in1012.5 mb - 0.00 in0.0 mm 0.00 in0.0 mm
06:00 PM 37.0°F2.8°C 21.0°F-6.1°C 52% 3.4 mph N5.5 kmh N 8.0 mph12.9 kmh 29.91 in1012.9 mb - 0.00 in0.0 mm 0.00 in0.0 mm
06:15 PM 36.5°F2.5°C 21.0°F-6.1°C 53% 0.6 mph WSW1.0 kmh WSW 3.0 mph4.8 kmh 29.92 in1013.2 mb - 0.00 in0.0 mm 0.00 in0.0 mm
06:30 PM 35.9°F2.2°C 20.4°F-6.4°C 53% 1.9 mph N3.1 kmh N 9.0 mph14.5 kmh 29.93 in1013.5 mb - 0.00 in0.0 mm 0.00 in0.0 mm
06:45 PM 35.5°F1.9°C 20.5°F-6.4°C 54% 0.4 mph W0.6 kmh W 1.0 mph1.6 kmh 29.93 in1013.5 mb - 0.00 in0.0 mm 0.00 in0.0 mm
07:00 PM 34.9°F1.6°C 20.0°F-6.7°C 54% 6.7 mph WNW10.8 kmh WNW 12.0 mph19.3 kmh 29.94 in1013.9 mb - 0.00 in0.0 mm 0.00 in0.0 mm
07:15 PM 34.4°F1.3°C 19.0°F-7.2°C 53% 4.3 mph E6.9 kmh E 9.0 mph14.5 kmh 29.94 in1013.9 mb - 0.00 in0.0 mm 0.00 in0.0 mm
07:30 PM 33.9°F1.1°C 19.0°F-7.2°C 54% 0.1 mph NW0.2 kmh NW 1.0 mph1.6 kmh 29.94 in1013.9 mb - 0.00 in0.0 mm 0.00 in0.0 mm
07:45 PM 33.2°F0.7°C 18.8°F-7.3°C 55% 4.6 mph N7.4 kmh N 9.0 mph14.5 kmh 29.94 in1013.9 mb - 0.00 in0.0 mm 0.00 in0.0 mm
08:00 PM 32.5°F0.3°C 18.1°F-7.7°C 55% 1.3 mph SW2.1 kmh SW 6.0 mph9.7 kmh 29.95 in1014.2 mb - 0.00 in0.0 mm 0.00 in0.0 mm
08:15 PM 31.9°F-0.1°C 18.0°F-7.8°C 56% 3.4 mph SW5.5 kmh SW 6.0 mph9.7 kmh 29.96 in1014.6 mb - 0.00 in0.0 mm 0.00 in0.0 mm
08:30 PM 31.4°F-0.3°C 17.9°F-7.8°C 57% Calm Calm -- 29.97 in1014.9 mb - 0.00 in0.0 mm 0.00 in0.0 mm
08:45 PM 30.9°F-0.6°C 18.2°F-7.7°C 59% 3.4 mph NNE5.5 kmh NNE 6.0 mph9.7 kmh 29.98 in1015.2 mb - 0.00 in0.0 mm 0.00 in0.0 mm
09:00 PM 30.5°F-0.8°C 17.9°F-7.8°C 59% Calm Calm -- 29.99 in1015.6 mb - 0.00 in0.0 mm 0.00 in0.0 mm
09:15 PM 30.0°F-1.1°C 18.2°F-7.7°C 61% Calm Calm -- 29.99 in1015.6 mb - 0.00 in0.0 mm 0.00 in0.0 mm
09:30 PM 29.7°F-1.3°C 17.9°F-7.8°C 61% 0.3 mph W0.5 kmh W 11.0 mph17.7 kmh 30.00 in1015.9 mb - 0.00 in0.0 mm 0.00 in0.0 mm
09:45 PM 29.4°F-1.4°C 18.0°F-7.8°C 62% 1.1 mph SW1.8 kmh SW 9.0 mph14.5 kmh 30.00 in1015.9 mb - 0.00 in0.0 mm 0.00 in0.0 mm
10:00 PM 29.1°F-1.6°C 17.7°F-7.9°C 62% Calm Calm -- 30.01 in1016.3 mb - 0.00 in0.0 mm 0.00 in0.0 mm
10:15 PM 28.9°F-1.7°C 17.5°F-8.1°C 62% 0.1 mph SW0.2 kmh SW -- 30.02 in1016.6 mb - 0.00 in0.0 mm 0.00 in0.0 mm
10:30 PM 28.7°F-1.8°C 17.7°F-7.9°C 63% Calm Calm -- 30.02 in1016.6 mb - 0.00 in0.0 mm 0.00 in0.0 mm
10:45 PM 28.4°F-2.0°C 17.4°F-8.1°C 63% Calm Calm 2.0 mph3.2 kmh 30.03 in1016.9 mb - 0.00 in0.0 mm 0.00 in0.0 mm
11:00 PM 28.3°F-2.1°C 17.3°F-8.2°C 63% Calm Calm -- 30.03 in1016.9 mb - 0.00 in0.0 mm 0.00 in0.0 mm
11:15 PM 27.9°F-2.3°C 17.3°F-8.2°C 64% Calm Calm -- 30.03 in1016.9 mb - 0.00 in0.0 mm 0.00 in0.0 mm
11:30 PM 27.6°F-2.4°C 17.4°F-8.1°C 65% Calm Calm -- 30.04 in1017.3 mb - 0.00 in0.0 mm 0.00 in0.0 mm
11:45 PM 27.4°F-2.6°C 17.5°F-8.1°C 66% Calm Calm 1.0 mph1.6 kmh 30.04 in1017.3 mb - 0.00 in0.0 mm 0.00 in0.0 mm